Česky Dansk Deutsch English Español Suomi Français Magyar Italiano Nederlands norsk Polski Português svenska Türkçe

 

Het Weer

Beziers / Vias (Frankrijk)

13:00, 21 augustus 2016 (GMT)

NWNNE
WE
SWSSE
Home            
Beziers / Vias Montpellier Perpignan Carcassonne Nimes / Garons Nimes / Courbessac Cassagnes-Begonhes Albi Istres Mende / Brenoux Rodez Salon Orange Marseille / Marignane Toulouse / Francazal Toulouse / Blagnac Aix Les Milles Gerona / Costa Brava Montelimar St-Girons Aurillac Le Puy Sabadell

Om een weerknop op uw website of weblog te plaatsen, copieer onderstaande code en plak die in uw pagina. In het eerste vakje staat HTML-code, in het tweede vakje UBB-code.


Add to Google

Details

Wind speed:5 bf, 16 kn, 8.2 m/s, 18.4 miles/h, 29.6 km/h
Wind direction:W, 280° - NNW, 340°
Visibility:Greater than 10000 m, 10 km, 32800 ft, 6.2 miles
Clouds:CAVOC
Temperature:27°C, 81°F
Gefühlte Temperatur:27°C, 80°F
Dew-point:9°C, 48°F
Atmospheric pressure:1022 hPa, 766.6 mmHg, 30.18 inHg, 1.009 atm
Relative humidity:32.2 %
METAR:LFMU 211300Z AUTO 31016KT 280V340 CAVOK 27/09 Q1022 TEMPO 32020G30KT

Snelkoppelingen

Actuele weersinformatie van de hele wereld. Voeg locaties toe met het plus (+) symbool. Deze snelkoppelingen kunnen worden toegevoegd aan Google.

Lid van de Technetium groep

website free tracking
StatCounter NetStat W3C Validator

09-08-2022 03:42:08
astro.technetium.be money.technetium.be phote.technetium.be tafeltennistafel.technetium.be www.ligfiets.net